sensor_id;sensor_type;location;lat;lon;timestamp;pressure;altitude;pressure_sealevel;temperature;humidity
6500;BME280;3283;52.330;9.772;2023-05-14T08:35:00;101096.03;;;19.71;64.35
6500;BME280;3283;52.330;9.772;2023-05-14T08:37:26;101097.84;;;19.91;63.90
6500;BME280;3283;52.330;9.772;2023-05-14T08:39:51;101097.59;;;19.55;64.72
6500;BME280;3283;52.330;9.772;2023-05-14T08:42:19;101091.72;;;19.47;64.69
6500;BME280;3283;52.330;9.772;2023-05-14T08:44:53;101086.25;;;20.11;100.00
6500;BME280;3283;52.330;9.772;2023-05-14T08:47:22;56484.91;;;-143.80;100.00
6500;BME280;3283;52.330;9.772;2023-05-14T08:59:49;101061.03;;;20.37;61.09
6500;BME280;3283;52.330;9.772;2023-05-14T09:02:15;101071.88;;;20.72;61.61
6500;BME280;3283;52.330;9.772;2023-05-14T09:04:42;101069.81;;;20.60;61.24
6500;BME280;3283;52.330;9.772;2023-05-14T09:07:07;56484.91;;;-143.80;100.00
6500;BME280;3283;52.330;9.772;2023-05-14T09:09:33;56484.91;;;-143.80;100.00
6500;BME280;3283;52.330;9.772;2023-05-14T09:12:00;56484.91;;;-143.80;100.00
6500;BME280;3283;52.330;9.772;2023-05-14T09:14:25;56484.91;;;-143.80;100.00
6500;BME280;3283;52.330;9.772;2023-05-14T09:16:51;56484.91;;;-143.80;100.00
6500;BME280;3283;52.330;9.772;2023-05-14T10:19:47;101007.22;;;21.69;54.67
6500;BME280;3283;52.330;9.772;2023-05-14T10:22:17;101008.44;;;20.93;56.01
6500;BME280;3283;52.330;9.772;2023-05-14T10:24:44;101003.75;;;21.67;54.81
6500;BME280;3283;52.330;9.772;2023-05-14T10:27:10;101002.88;;;22.17;54.80
6500;BME280;3283;52.330;9.772;2023-05-14T10:29:36;101001.22;;;23.09;53.37
6500;BME280;3283;52.330;9.772;2023-05-14T10:32:04;100991.69;;;23.03;52.68
6500;BME280;3283;52.330;9.772;2023-05-14T10:37:00;100996.03;;;21.78;54.47
6500;BME280;3283;52.330;9.772;2023-05-14T10:39:45;100998.47;;;22.47;53.23
6500;BME280;3283;52.330;9.772;2023-05-14T10:42:14;100985.50;;;23.47;49.95
6500;BME280;3283;52.330;9.772;2023-05-14T10:44:47;100991.72;;;22.72;48.25
6500;BME280;3283;52.330;9.772;2023-05-14T10:47:14;100990.66;;;22.90;48.74
6500;BME280;3283;52.330;9.772;2023-05-14T10:49:40;100994.38;;;23.34;48.84
6500;BME280;3283;52.330;9.772;2023-05-14T10:52:08;100988.41;;;24.16;47.73
6500;BME280;3283;52.330;9.772;2023-05-14T10:54:37;100979.00;;;23.66;48.66
6500;BME280;3283;52.330;9.772;2023-05-14T10:57:02;100979.97;;;24.07;47.88
6500;BME280;3283;52.330;9.772;2023-05-14T10:59:28;100977.38;;;24.34;47.74
6500;BME280;3283;52.330;9.772;2023-05-14T11:01:56;100965.00;;;23.75;48.44
6500;BME280;3283;52.330;9.772;2023-05-14T11:04:26;100979.34;;;23.60;49.43
6500;BME280;3283;52.330;9.772;2023-05-14T11:06:52;100975.09;;;23.86;47.89
6500;BME280;3283;52.330;9.772;2023-05-14T11:09:19;100972.13;;;23.90;48.30
6500;BME280;3283;52.330;9.772;2023-05-14T11:11:45;56484.91;;;-143.80;100.00
6500;BME280;3283;52.330;9.772;2023-05-14T11:14:11;56484.91;;;-143.80;100.00
6500;BME280;3283;52.330;9.772;2023-05-14T11:16:37;56484.91;;;-143.80;100.00
6500;BME280;3283;52.330;9.772;2023-05-14T11:19:03;56484.91;;;-143.80;100.00
6500;BME280;3283;52.330;9.772;2023-05-14T11:21:29;56484.91;;;-143.80;100.00
6500;BME280;3283;52.330;9.772;2023-05-14T11:23:56;56484.91;;;-143.80;100.00
6500;BME280;3283;52.330;9.772;2023-05-14T11:26:22;56484.91;;;-143.80;100.00
6500;BME280;3283;52.330;9.772;2023-05-14T11:28:48;56484.91;;;-143.80;100.00
6500;BME280;3283;52.330;9.772;2023-05-14T11:31:13;56484.91;;;-143.80;100.00
6500;BME280;3283;52.330;9.772;2023-05-14T11:33:39;56484.91;;;-143.80;100.00
6500;BME280;3283;52.330;9.772;2023-05-14T11:36:05;56484.91;;;-143.80;100.00
6500;BME280;3283;52.330;9.772;2023-05-14T11:38:30;56484.91;;;-143.80;100.00
6500;BME280;3283;52.330;9.772;2023-05-14T11:40:57;56484.91;;;-143.80;100.00
6500;BME280;3283;52.330;9.772;2023-05-14T11:43:24;56484.91;;;-143.80;100.00
6500;BME280;3283;52.330;9.772;2023-05-14T11:45:51;56484.91;;;-143.80;100.00
6500;BME280;3283;52.330;9.772;2023-05-14T11:48:17;56484.91;;;-143.80;100.00
6500;BME280;3283;52.330;9.772;2023-05-14T11:50:47;56484.91;;;-143.80;100.00
6500;BME280;3283;52.330;9.772;2023-05-14T11:53:25;56484.91;;;-143.80;100.00
6500;BME280;3283;52.330;9.772;2023-05-14T11:55:52;56484.91;;;-143.80;100.00
6500;BME280;3283;52.330;9.772;2023-05-14T11:58:18;56484.91;;;-143.80;100.00
6500;BME280;3283;52.330;9.772;2023-05-14T12:00:44;56484.91;;;-143.80;100.00
6500;BME280;3283;52.330;9.772;2023-05-14T12:03:13;56484.91;;;-143.80;100.00
6500;BME280;3283;52.330;9.772;2023-05-14T12:05:38;56484.91;;;-143.80;100.00
6500;BME280;3283;52.330;9.772;2023-05-14T12:08:19;56484.91;;;-143.80;100.00
6500;BME280;3283;52.330;9.772;2023-05-14T12:10:48;56484.91;;;-143.80;100.00
6500;BME280;3283;52.330;9.772;2023-05-14T12:13:16;56484.91;;;-143.80;100.00
6500;BME280;3283;52.330;9.772;2023-05-14T12:16:06;56484.91;;;-143.80;100.00
6500;BME280;3283;52.330;9.772;2023-05-14T12:18:32;56484.91;;;-143.80;100.00
6500;BME280;3283;52.330;9.772;2023-05-14T12:21:02;56484.91;;;-143.80;100.00
6500;BME280;3283;52.330;9.772;2023-05-14T12:23:29;56484.91;;;-143.80;100.00
6500;BME280;3283;52.330;9.772;2023-05-14T12:25:59;56484.91;;;-143.80;100.00
6500;BME280;3283;52.330;9.772;2023-05-14T12:28:25;56484.91;;;-143.80;100.00
6500;BME280;3283;52.330;9.772;2023-05-14T12:30:55;56484.91;;;-143.80;100.00
6500;BME280;3283;52.330;9.772;2023-05-14T12:33:20;56484.91;;;-143.80;100.00
6500;BME280;3283;52.330;9.772;2023-05-14T12:35:48;56484.91;;;-143.80;100.00
6500;BME280;3283;52.330;9.772;2023-05-14T12:38:13;56484.91;;;-143.80;100.00
6500;BME280;3283;52.330;9.772;2023-05-14T12:40:38;56484.91;;;-143.80;100.00
6500;BME280;3283;52.330;9.772;2023-05-14T12:43:04;56484.91;;;-143.80;100.00
6500;BME280;3283;52.330;9.772;2023-05-14T12:45:29;56484.91;;;-143.80;100.00
6500;BME280;3283;52.330;9.772;2023-05-14T12:47:55;56484.91;;;-143.80;100.00
6500;BME280;3283;52.330;9.772;2023-05-14T12:50:20;56484.91;;;-143.80;100.00
